| time (UTC) | temp F | wind direction | speed knots | gust knots | rain 1hr in | rain 24hr in | rain mn in | humidity % | barometer mb |
| 20260905091503 | 73 | 304 | 0.0 | 1.7 | 0.00 | 0.00 | 0.00 | 73 | 1009.5 |
| 20260905091004 | 73 | 304 | 0.0 | 1.7 | 0.00 | 0.00 | 0.00 | 73 | 1009.6 |
| 20260905090503 | 73 | 304 | 0.9 | 1.7 | 0.00 | 0.00 | 0.00 | 73 | 1009.6 |
| 20260905090004 | 74 | 304 | 0.0 | 0.0 | 0.00 | 0.00 | 0.00 | 73 | 1009.6 |
| 20260905085503 | 74 | 304 | 0.0 | 0.9 | 0.00 | 0.00 | 0.00 | 73 | 1009.7 |
| 20260905085004 | 74 | 304 | 0.0 | 0.9 | 0.00 | 0.00 | 0.00 | 73 | 1009.6 |
| 20260905084503 | 74 | 304 | 0.9 | 1.7 | 0.00 | 0.00 | 0.00 | 73 | 1009.6 |
| 20260905084004 | 74 | 304 | 0.9 | 1.7 | 0.00 | 0.00 | 0.00 | 73 | 1009.5 |
| 20260905083503 | 74 | 304 | 0.0 | 0.0 | 0.00 | 0.00 | 0.00 | 73 | 1009.6 |
| 20260905083004 | 74 | 304 | 0.9 | 1.7 | 0.00 | 0.00 | 0.00 | 73 | 1009.6 |
| 20260905082503 | 74 | 304 | 0.0 | 0.0 | 0.00 | 0.00 | 0.00 | 73 | 1009.6 |
| 20260905082004 | 74 | 304 | 0.0 | 1.7 | 0.00 | 0.00 | 0.00 | 73 | 1009.6 |
| 20260905081503 | 74 | 218 | 0.0 | 0.0 | 0.00 | 0.00 | 0.00 | 73 | 1009.6 |
| 20260905081004 | 74 | 216 | 0.0 | 1.7 | 0.00 | 0.00 | 0.00 | 73 | 1009.7 |
| 20260905080504 | 74 | 358 | 0.0 | 0.9 | 0.00 | 0.00 | 0.00 | 72 | 1009.8 |
| 20260905080003 | 74 | 358 | 0.0 | 0.0 | 0.00 | 0.00 | 0.00 | 72 | 1009.6 |
| 20260905075504 | 74 | 358 | 0.0 | 0.0 | 0.00 | 0.00 | 0.00 | 72 | 1009.6 |
| 20260905075003 | 74 | 358 | 0.0 | 0.9 | 0.00 | 0.00 | 0.00 | 72 | 1009.6 |
| 20260905074504 | 74 | 358 | 0.0 | 0.9 | 0.00 | 0.00 | 0.00 | 72 | 1009.6 |
| 20260905074004 | 74 | 358 | 0.9 | 1.7 | 0.00 | 0.00 | 0.00 | 72 | 1009.6 |
| 20260905073503 | 74 | 358 | 0.9 | 2.6 | 0.00 | 0.00 | 0.00 | 72 | 1009.6 |
| 20260905073004 | 74 | 292 | 0.9 | 1.7 | 0.00 | 0.00 | 0.00 | 72 | 1009.6 |
| 20260905072503 | 74 | 292 | 0.0 | 1.7 | 0.00 | 0.00 | 0.00 | 72 | 1009.6 |
| 20260905072004 | 75 | 292 | 0.9 | 2.6 | 0.00 | 0.00 | 0.00 | 72 | 1009.8 |
| 20260905071503 | 75 | 321 | 0.9 | 2.6 | 0.00 | 0.00 | 0.00 | 72 | 1009.8 |
| 20260905071003 | 75 | 350 | 0.9 | 2.6 | 0.00 | 0.00 | 0.00 | 72 | 1009.7 |
| 20260905070504 | 75 | 271 | 1.7 | 2.6 | 0.00 | 0.00 | 0.00 | 71 | 1009.7 |
| 20260905070004 | 75 | 313 | 0.0 | 2.6 | 0.00 | 0.00 | 0.00 | 71 | 1009.7 |
| 20260905065504 | 75 | 329 | 0.9 | 2.6 | 0.00 | 0.00 | 0.00 | 71 | 1009.7 |
| 20260905065004 | 75 | 302 | 0.0 | 1.7 | 0.00 | 0.00 | 0.00 | 71 | 1009.7 |
| 20260905064503 | 75 | 302 | 0.9 | 2.6 | 0.00 | 0.00 | 0.00 | 71 | 1009.7 |
| 20260905064004 | 75 | 302 | 0.9 | 1.7 | 0.00 | 0.00 | 0.00 | 71 | 1009.7 |
| 20260905063503 | 75 | 302 | 1.7 | 2.6 | 0.00 | 0.00 | 0.00 | 71 | 1009.7 |
| 20260905063003 | 75 | 297 | 0.9 | 2.6 | 0.00 | 0.00 | 0.00 | 71 | 1009.8 |
| 20260905062503 | 75 | 296 | 1.7 | 4.3 | 0.00 | 0.00 | 0.00 | 71 | 1009.8 |
| 20260905062004 | 75 | 305 | 1.7 | 2.6 | 0.00 | 0.00 | 0.00 | 71 | 1009.8 |
| 20260905061504 | 75 | 318 | 1.7 | 4.3 | 0.00 | 0.00 | 0.00 | 71 | 1009.8 |
| 20260905061004 | 75 | 318 | 1.7 | 2.6 | 0.00 | 0.00 | 0.00 | 71 | 1009.8 |
| 20260905060503 | 75 | 11 | 0.9 | 2.6 | 0.00 | 0.00 | 0.00 | 71 | 1009.9 |
| 20260905060003 | 75 | 296 | 0.9 | 1.7 | 0.00 | 0.00 | 0.00 | 71 | 1010.0 |
| 20260905055504 | 75 | 297 | 1.7 | 2.6 | 0.00 | 0.00 | 0.00 | 71 | 1010.0 |
| 20260905055003 | 75 | 318 | 0.0 | 2.6 | 0.00 | 0.00 | 0.00 | 71 | 1010.1 |
| 20260905054504 | 75 | 353 | 0.0 | 1.7 | 0.00 | 0.00 | 0.00 | 71 | 1010.1 |
| 20260905054003 | 75 | 353 | 0.9 | 1.7 | 0.00 | 0.00 | 0.00 | 71 | 1010.2 |
| 20260905053504 | 75 | 351 | 1.7 | 2.6 | 0.00 | 0.00 | 0.00 | 71 | 1010.2 |
| 20260905053003 | 76 | 308 | 0.0 | 1.7 | 0.00 | 0.00 | 0.00 | 71 | 1010.2 |
| 20260905052504 | 76 | 308 | 0.0 | 1.7 | 0.00 | 0.00 | 0.00 | 70 | 1010.3 |
| 20260905052003 | 76 | 308 | 0.0 | 1.7 | 0.00 | 0.00 | 0.00 | 70 | 1010.4 |
| 20260905051504 | 76 | 309 | 0.9 | 2.6 | 0.00 | 0.00 | 0.00 | 70 | 1010.4 |
| 20260905051003 | 76 | 309 | 0.0 | 0.0 | 0.00 | 0.00 | 0.00 | 70 | 1010.4 |
| 20260905050503 | 76 | 307 | 0.0 | 1.7 | 0.00 | 0.00 | 0.00 | 70 | 1010.5 |
| 20260905050004 | 76 | 325 | 0.9 | 2.6 | 0.00 | 0.00 | 0.00 | 70 | 1010.5 |
| 20260905045503 | 76 | 335 | 0.0 | 2.6 | 0.00 | 0.00 | 0.00 | 70 | 1010.5 |
| 20260905045004 | 76 | 307 | 0.0 | 2.6 | 0.00 | 0.00 | 0.00 | 70 | 1010.6 |
| 20260905044503 | 76 | 302 | 0.9 | 2.6 | 0.00 | 0.00 | 0.00 | 70 | 1010.6 |
| 20260905044004 | 76 | 267 | 0.0 | 2.6 | 0.00 | 0.00 | 0.00 | 70 | 1010.7 |
| 20260905043503 | 76 | 12 | 0.9 | 4.3 | 0.00 | 0.00 | 0.00 | 70 | 1010.6 |
| 20260905043004 | 77 | 343 | 0.9 | 4.3 | 0.00 | 0.00 | 0.00 | 70 | 1010.7 |
| 20260905042503 | 77 | 338 | 0.0 | 2.6 | 0.00 | 0.00 | 0.00 | 70 | 1010.8 |
| 20260905042004 | 77 | 301 | 0.9 | 2.6 | 0.00 | 0.00 | 0.00 | 70 | 1010.8 |
| 20260905041504 | 77 | 308 | 0.9 | 2.6 | 0.00 | 0.00 | 0.00 | 70 | 1010.8 |
| 20260905041003 | 77 | 317 | 0.9 | 2.6 | 0.00 | 0.00 | 0.00 | 70 | 1010.9 |
| 20260905040503 | 77 | 312 | 0.9 | 2.6 | 0.00 | 0.00 | 0.00 | 70 | 1010.8 |
| 20260905040004 | 77 | 324 | 0.0 | 1.7 | 0.00 | 0.00 | 0.00 | 70 | 1010.9 |
| 20260905035504 | 77 | 324 | 0.9 | 1.7 | 0.00 | 0.00 | 0.00 | 70 | 1010.8 |
| 20260905035003 | 77 | 324 | 0.9 | 1.7 | 0.00 | 0.00 | 0.00 | 70 | 1010.8 |
| 20260905034504 | 77 | 304 | 0.9 | 1.7 | 0.00 | 0.00 | 0.00 | 70 | 1010.7 |
| 20260905034003 | 78 | 304 | 0.9 | 1.7 | 0.00 | 0.00 | 0.00 | 70 | 1010.8 |
| 20260905033503 | 78 | 304 | 0.0 | 1.7 | 0.00 | 0.00 | 0.00 | 70 | 1010.5 |
| 20260905033004 | 78 | 304 | 0.0 | 0.9 | 0.00 | 0.00 | 0.00 | 70 | 1010.5 |
| 20260905032504 | 78 | 304 | 0.0 | 0.9 | 0.00 | 0.00 | 0.00 | 70 | 1010.6 |
| 20260905032003 | 78 | 304 | 0.9 | 2.6 | 0.00 | 0.00 | 0.00 | 70 | 1010.6 |
| 20260905031503 | 78 | 313 | 0.0 | 1.7 | 0.00 | 0.00 | 0.00 | 69 | 1010.6 |
| 20260905031004 | 78 | 313 | 0.0 | 0.9 | 0.00 | 0.00 | 0.00 | 69 | 1010.7 |
| 20260905030503 | 78 | 313 | 0.0 | 1.7 | 0.00 | 0.00 | 0.00 | 69 | 1010.5 |
| 20260905030004 | 79 | 313 | 0.0 | 0.9 | 0.00 | 0.00 | 0.00 | 69 | 1010.5 |
| 20260905025504 | 79 | 313 | 0.0 | 0.9 | 0.00 | 0.00 | 0.00 | 69 | 1010.5 |
| 20260905025003 | 79 | 313 | 0.0 | 1.7 | 0.00 | 0.00 | 0.00 | 69 | 1010.5 |
| 20260905024503 | 79 | 313 | 0.0 | 1.7 | 0.00 | 0.00 | 0.00 | 69 | 1010.4 |
| 20260905024003 | 79 | 313 | 0.9 | 1.7 | 0.00 | 0.00 | 0.00 | 69 | 1010.5 |
| 20260905023504 | 79 | 313 | 0.0 | 2.6 | 0.00 | 0.00 | 0.00 | 69 | 1010.4 |
| 20260905023003 | 79 | 313 | 0.9 | 2.6 | 0.00 | 0.00 | 0.00 | 69 | 1010.4 |
| 20260905022504 | 79 | 313 | 0.9 | 2.6 | 0.00 | 0.00 | 0.00 | 69 | 1010.4 |
| 20260905022003 | 79 | 313 | 0.9 | 2.6 | 0.00 | 0.00 | 0.00 | 69 | 1010.4 |
| 20260905021503 | 79 | 313 | 1.7 | 2.6 | 0.00 | 0.00 | 0.00 | 69 | 1010.5 |
| 20260905021004 | 79 | 313 | 0.9 | 2.6 | 0.00 | 0.00 | 0.00 | 70 | 1010.5 |
| 20260905020504 | 79 | 313 | 1.7 | 2.6 | 0.00 | 0.00 | 0.00 | 70 | 1010.4 |
| 20260905020004 | 80 | 307 | 0.0 | 2.6 | 0.00 | 0.00 | 0.00 | 70 | 1010.6 |
| 20260905015504 | 80 | 307 | 0.0 | 0.9 | 0.00 | 0.00 | 0.00 | 70 | 1010.5 |
| 20260905015004 | 80 | 307 | 0.9 | 2.6 | 0.00 | 0.00 | 0.00 | 71 | 1010.6 |
| 20260905014503 | 80 | 307 | 1.7 | 2.6 | 0.00 | 0.00 | 0.00 | 71 | 1010.4 |
| 20260905014003 | 80 | 307 | 0.0 | 0.0 | 0.00 | 0.00 | 0.00 | 71 | 1010.4 |
| 20260905013503 | 80 | 307 | 0.0 | 0.9 | 0.00 | 0.00 | 0.00 | 71 | 1010.6 |
| 20260905013003 | 80 | 307 | 0.9 | 1.7 | 0.00 | 0.00 | 0.00 | 71 | 1010.6 |
| 20260905012503 | 80 | 307 | 0.0 | 2.6 | 0.00 | 0.00 | 0.00 | 71 | 1010.6 |
| 20260905012003 | 81 | 307 | 0.0 | 0.9 | 0.00 | 0.00 | 0.00 | 71 | 1010.6 |
| 20260905011504 | 81 | 307 | 0.0 | 1.7 | 0.00 | 0.00 | 0.00 | 70 | 1010.6 |
| 20260905011004 | 81 | 307 | 0.9 | 1.7 | 0.00 | 0.00 | 0.00 | 71 | 1010.5 |
| 20260905010503 | 81 | 307 | 0.9 | 2.6 | 0.00 | 0.00 | 0.00 | 71 | 1010.3 |
| 20260905010004 | 81 | 307 | 0.9 | 2.6 | 0.00 | 0.00 | 0.00 | 71 | 1010.3 |
| 20260905005504 | 81 | 307 | 1.7 | 2.6 | 0.00 | 0.00 | 0.00 | 70 | 1010.2 |
| 20260905005004 | 81 | 292 | 0.9 | 2.6 | 0.00 | 0.00 | 0.00 | 70 | 1010.3 |
| 20260905004504 | 82 | 315 | 1.7 | 2.6 | 0.00 | 0.00 | 0.00 | 70 | 1010.3 |
| 20260905004004 | 82 | 358 | 0.9 | 2.6 | 0.00 | 0.00 | 0.00 | 69 | 1010.2 |
| 20260905003503 | 82 | 6 | 0.9 | 1.7 | 0.00 | 0.00 | 0.00 | 69 | 1010.1 |
| 20260905003004 | 82 | 14 | 0.0 | 1.7 | 0.00 | 0.00 | 0.00 | 68 | 1010.0 |
| 20260905002503 | 82 | 38 | 0.0 | 0.0 | 0.00 | 0.00 | 0.00 | 68 | 1009.9 |
| 20260905002004 | 82 | 38 | 0.0 | 0.9 | 0.00 | 0.00 | 0.00 | 68 | 1010.0 |
| 20260905001503 | 82 | 38 | 0.9 | 2.6 | 0.00 | 0.00 | 0.00 | 68 | 1009.9 |
| 20260905001004 | 82 | 301 | 0.9 | 2.6 | 0.00 | 0.00 | 0.00 | 68 | 1010.0 |
| 20260905000504 | 82 | 302 | 0.9 | 2.6 | 0.00 | 0.00 | 0.00 | 68 | 1010.1 |
| 20260905000004 | 83 | 246 | 0.0 | 0.9 | 0.00 | 0.00 | 0.00 | 68 | 1010.1 |
| 20260904235503 | 83 | 246 | 0.0 | 0.9 | 0.00 | 0.00 | 0.00 | 67 | 1010.1 |
| 20260904235004 | 83 | 246 | 0.0 | 0.9 | 0.00 | 0.00 | 0.00 | 67 | 1010.2 |
| 20260904234504 | 83 | 246 | 0.0 | 0.9 | 0.00 | 0.00 | 0.00 | 67 | 1010.0 |
| 20260904234003 | 83 | 246 | 0.0 | 1.7 | 0.00 | 0.00 | 0.00 | 67 | 1010.2 |
| 20260904233504 | 83 | 246 | 0.9 | 1.7 | 0.00 | 0.00 | 0.00 | 66 | 1010.3 |
| 20260904233003 | 83 | 246 | 0.0 | 1.7 | 0.00 | 0.00 | 0.00 | 66 | 1010.3 |
| 20260904232504 | 83 | 246 | 0.0 | 0.9 | 0.00 | 0.00 | 0.00 | 65 | 1010.2 |
| 20260904232003 | 84 | 246 | 0.9 | 1.7 | 0.00 | 0.00 | 0.00 | 65 | 1010.2 |
| 20260904231503 | 84 | 300 | 0.9 | 1.7 | 0.00 | 0.00 | 0.00 | 65 | 1010.2 |
| 20260904231004 | 84 | 300 | 0.9 | 1.7 | 0.00 | 0.00 | 0.00 | 64 | 1010.2 |
| 20260904230504 | 84 | 252 | 0.9 | 2.6 | 0.00 | 0.00 | 0.00 | 64 | 1010.1 |
| 20260904230003 | 84 | 215 | 0.9 | 2.6 | 0.00 | 0.00 | 0.00 | 64 | 1010.2 |
| 20260904225504 | 84 | 252 | 0.0 | 4.3 | 0.00 | 0.00 | 0.00 | 64 | 1010.2 |
| 20260904225004 | 85 | 271 | 0.9 | 2.6 | 0.00 | 0.00 | 0.00 | 64 | 1010.2 |
| 20260904224503 | 85 | 294 | 1.7 | 2.6 | 0.00 | 0.00 | 0.00 | 63 | 1010.3 |
| 20260904224004 | 85 | 344 | 1.7 | 4.3 | 0.00 | 0.00 | 0.00 | 63 | 1010.3 |
| 20260904223503 | 85 | 310 | 2.6 | 7.8 | 0.00 | 0.00 | 0.00 | 63 | 1010.3 |
| 20260904223003 | 85 | 307 | 1.7 | 6.1 | 0.00 | 0.00 | 0.00 | 63 | 1010.3 |
| 20260904222504 | 85 | 273 | 1.7 | 4.3 | 0.00 | 0.00 | 0.00 | 63 | 1010.3 |
| 20260904222004 | 85 | 231 | 0.9 | 2.6 | 0.00 | 0.00 | 0.00 | 63 | 1010.2 |
| 20260904221505 | 85 | 258 | 1.7 | 4.3 | 0.00 | 0.00 | 0.00 | 62 | 1010.2 |
| 20260904221004 | 85 | 224 | 1.7 | 4.3 | 0.00 | 0.00 | 0.00 | 62 | 1010.1 |
| 20260904220503 | 85 | 208 | 0.9 | 4.3 | 0.00 | 0.00 | 0.00 | 62 | 1010.1 |
| 20260904220004 | 86 | 293 | 1.7 | 5.2 | 0.00 | 0.00 | 0.00 | 61 | 1010.1 |
| 20260904215504 | 86 | 252 | 0.9 | 5.2 | 0.00 | 0.00 | 0.00 | 61 | 1010.1 |
| 20260904215003 | 86 | 7 | 0.9 | 6.1 | 0.00 | 0.00 | 0.00 | 60 | 1010.0 |
| 20260904214504 | 86 | 261 | 0.9 | 2.6 | 0.00 | 0.00 | 0.00 | 60 | 1010.0 |
| 20260904214003 | 86 | 125 | 0.9 | 6.1 | 0.00 | 0.00 | 0.00 | 59 | 1010.2 |
| 20260904213503 | 87 | 298 | 1.7 | 5.2 | 0.00 | 0.00 | 0.00 | 59 | 1010.2 |
| 20260904213004 | 87 | 260 | 1.7 | 2.6 | 0.00 | 0.00 | 0.00 | 59 | 1010.0 |
| 20260904212503 | 87 | 66 | 0.9 | 4.3 | 0.00 | 0.00 | 0.00 | 58 | 1009.9 |
| 20260904212004 | 87 | 279 | 2.6 | 5.2 | 0.00 | 0.00 | 0.00 | 58 | 1009.9 |
| 20260904211504 | 88 | 320 | 0.9 | 2.6 | 0.00 | 0.00 | 0.00 | 59 | 1010.0 |
| 20260904211003 | 88 | 241 | 0.9 | 2.6 | 0.00 | 0.00 | 0.00 | 59 | 1010.0 |
| 20260904210504 | 88 | 9 | 0.9 | 2.6 | 0.00 | 0.00 | 0.00 | 59 | 1010.0 |
| 20260904210003 | 88 | 279 | 4.3 | 8.7 | 0.00 | 0.00 | 0.00 | 59 | 1010.0 |
| 20260904205504 | 88 | 311 | 0.9 | 4.3 | 0.00 | 0.00 | 0.00 | 60 | 1010.1 |
| 20260904205003 | 87 | 331 | 2.6 | 5.2 | 0.00 | 0.00 | 0.00 | 61 | 1010.1 |
| 20260904204504 | 87 | 290 | 0.9 | 2.6 | 0.00 | 0.00 | 0.00 | 61 | 1010.1 |
| 20260904204004 | 87 | 327 | 2.6 | 4.3 | 0.00 | 0.00 | 0.00 | 59 | 1010.1 |
| 20260904203504 | 88 | 278 | 1.7 | 4.3 | 0.00 | 0.00 | 0.00 | 59 | 1010.2 |
| 20260904203004 | 88 | 294 | 0.9 | 6.1 | 0.00 | 0.00 | 0.00 | 58 | 1010.1 |
| 20260904202504 | 89 | 236 | 0.9 | 4.3 | 0.00 | 0.00 | 0.00 | 57 | 1010.3 |
| 20260904202004 | 89 | 283 | 1.7 | 6.1 | 0.00 | 0.00 | 0.00 | 56 | 1010.4 |
| 20260904201504 | 90 | 5 | 1.7 | 2.6 | 0.00 | 0.00 | 0.00 | 56 | 1010.3 |
| 20260904201003 | 90 | 290 | 1.7 | 6.1 | 0.00 | 0.00 | 0.00 | 55 | 1010.5 |
| 20260904200503 | 91 | 275 | 0.9 | 2.6 | 0.00 | 0.00 | 0.00 | 54 | 1010.5 |
| 20260904200003 | 91 | 325 | 2.6 | 7.0 | 0.00 | 0.00 | 0.00 | 55 | 1010.5 |
| 20260904195503 | 91 | 148 | 1.7 | 8.7 | 0.00 | 0.00 | 0.00 | 53 | 1010.4 |
| 20260904195003 | 92 | 277 | 1.7 | 7.0 | 0.00 | 0.00 | 0.00 | 54 | 1010.7 |
| 20260904194504 | 92 | 247 | 1.7 | 4.3 | 0.00 | 0.00 | 0.00 | 53 | 1010.7 |
| 20260904194004 | 92 | 255 | 4.3 | 10.4 | 0.00 | 0.00 | 0.00 | 54 | 1010.8 |
| 20260904193504 | 92 | 237 | 1.7 | 10.4 | 0.00 | 0.00 | 0.00 | 55 | 1011.0 |
| 20260904193004 | 91 | 243 | 1.7 | 6.1 | 0.00 | 0.00 | 0.00 | 54 | 1010.9 |
| 20260904192504 | 91 | 164 | 1.7 | 5.2 | 0.00 | 0.00 | 0.00 | 56 | 1011.0 |
| 20260904192003 | 91 | 142 | 2.6 | 8.7 | 0.00 | 0.00 | 0.00 | 55 | 1010.9 |
| 20260904191503 | 91 | 257 | 1.7 | 10.4 | 0.00 | 0.00 | 0.00 | 57 | 1011.0 |
| 20260904191004 | 91 | 254 | 5.2 | 10.4 | 0.00 | 0.00 | 0.00 | 56 | 1011.0 |
| 20260904190503 | 90 | 268 | 1.7 | 5.2 | 0.00 | 0.00 | 0.00 | 57 | 1011.0 |
| 20260904190004 | 90 | 137 | 2.6 | 7.0 | 0.00 | 0.00 | 0.00 | 56 | 1011.0 |
| 20260904185503 | 90 | 315 | 1.7 | 8.7 | 0.00 | 0.00 | 0.00 | 57 | 1011.0 |
| 20260904185003 | 90 | 219 | 1.7 | 4.3 | 0.00 | 0.00 | 0.00 | 57 | 1011.1 |
| 20260904184504 | 90 | 318 | 3.5 | 7.0 | 0.00 | 0.00 | 0.00 | 55 | 1011.1 |
| 20260904184003 | 90 | 5 | 1.7 | 6.1 | 0.00 | 0.00 | 0.00 | 55 | 1011.2 |
| 20260904183504 | 90 | 268 | 3.5 | 10.4 | 0.00 | 0.00 | 0.00 | 56 | 1011.2 |
| 20260904183003 | 91 | 64 | 4.3 | 8.7 | 0.00 | 0.00 | 0.00 | 54 | 1011.2 |
| 20260904182503 | 91 | 284 | 2.6 | 6.1 | 0.00 | 0.00 | 0.00 | 54 | 1011.2 |
| 20260904182004 | 91 | 277 | 1.7 | 5.2 | 0.00 | 0.00 | 0.00 | 54 | 1011.2 |
| 20260904181503 | 91 | 152 | 2.6 | 7.8 | 0.00 | 0.00 | 0.00 | 54 | 1011.3 |
| 20260904181004 | 91 | 232 | 2.6 | 7.8 | 0.00 | 0.00 | 0.00 | 54 | 1011.2 |
| 20260904180504 | 91 | 313 | 3.5 | 7.8 | 0.00 | 0.00 | 0.00 | 53 | 1011.3 |
| 20260904180003 | 91 | 250 | 2.6 | 7.0 | 0.00 | 0.00 | 0.00 | 53 | 1011.2 |
| 20260904175503 | 91 | 215 | 2.6 | 7.8 | 0.00 | 0.00 | 0.00 | 54 | 1011.1 |
| 20260904175004 | 91 | 325 | 2.6 | 6.1 | 0.00 | 0.00 | 0.00 | 54 | 1011.2 |
| 20260904174504 | 91 | 270 | 2.6 | 4.3 | 0.00 | 0.00 | 0.00 | 54 | 1011.2 |
| 20260904174003 | 90 | 257 | 1.7 | 7.0 | 0.00 | 0.00 | 0.00 | 56 | 1011.2 |
| 20260904173503 | 90 | 220 | 1.7 | 7.8 | 0.00 | 0.00 | 0.00 | 56 | 1011.2 |
| 20260904173004 | 89 | 311 | 2.6 | 7.0 | 0.00 | 0.00 | 0.00 | 55 | 1011.2 |
| 20260904172503 | 89 | 324 | 3.5 | 7.8 | 0.00 | 0.00 | 0.00 | 55 | 1011.1 |
| 20260904172003 | 89 | 340 | 2.6 | 10.4 | 0.00 | 0.00 | 0.00 | 55 | 1011.2 |
| 20260904171503 | 89 | 317 | 2.6 | 8.7 | 0.00 | 0.00 | 0.00 | 55 | 1011.2 |
| 20260904171004 | 90 | 307 | 3.5 | 8.7 | 0.00 | 0.00 | 0.00 | 54 | 1011.1 |
| 20260904170503 | 90 | 331 | 2.6 | 7.8 | 0.00 | 0.00 | 0.00 | 54 | 1011.2 |
| 20260904170003 | 89 | 355 | 2.6 | 7.0 | 0.00 | 0.00 | 0.00 | 55 | 1011.2 |
| 20260904165504 | 89 | 351 | 2.6 | 2.6 | 0.00 | 0.00 | 0.00 | 57 | 1011.2 |
| 20260904165003 | 89 | 205 | 2.6 | 7.0 | 0.00 | 0.00 | 0.00 | 57 | 1011.2 |
| 20260904164504 | 89 | 252 | 1.7 | 5.2 | 0.00 | 0.00 | 0.00 | 58 | 1011.2 |
| 20260904164004 | 88 | 171 | 1.7 | 6.1 | 0.00 | 0.00 | 0.00 | 58 | 1011.1 |
| 20260904163503 | 88 | 312 | 1.7 | 4.3 | 0.00 | 0.00 | 0.00 | 57 | 1011.3 |
| 20260904163003 | 88 | 329 | 1.7 | 7.0 | 0.00 | 0.00 | 0.00 | 57 | 1011.3 |
| 20260904162503 | 88 | 294 | 4.3 | 8.7 | 0.00 | 0.00 | 0.00 | 56 | 1011.3 |
| 20260904162004 | 88 | 323 | 5.2 | 10.4 | 0.00 | 0.00 | 0.00 | 57 | 1011.2 |
| 20260904161503 | 88 | 327 | 2.6 | 7.0 | 0.00 | 0.00 | 0.00 | 59 | 1011.3 |
| 20260904161004 | 88 | 12 | 2.6 | 7.0 | 0.00 | 0.00 | 0.00 | 60 | 1011.4 |
| 20260904160504 | 88 | 353 | 2.6 | 8.7 | 0.00 | 0.00 | 0.00 | 59 | 1011.4 |
| 20260904160003 | 88 | 3 | 5.2 | 10.4 | 0.00 | 0.00 | 0.00 | 59 | 1011.5 |
| 20260904155504 | 88 | 286 | 2.6 | 8.7 | 0.00 | 0.00 | 0.00 | 58 | 1011.4 |
| 20260904155004 | 88 | 0 | 4.3 | 8.7 | 0.00 | 0.00 | 0.00 | 59 | 1011.3 |
| 20260904154503 | 88 | 344 | 4.3 | 10.4 | 0.00 | 0.00 | 0.00 | 61 | 1011.3 |
| 20260904154004 | 87 | 236 | 2.6 | 8.7 | 0.00 | 0.00 | 0.00 | 61 | 1011.6 |
| 20260904153504 | 87 | 336 | 2.6 | 4.3 | 0.00 | 0.00 | 0.00 | 63 | 1011.7 |
| 20260904153004 | 87 | 29 | 2.6 | 10.4 | 0.00 | 0.00 | 0.00 | 62 | 1011.7 |
| 20260904152503 | 87 | 26 | 5.2 | 10.4 | 0.00 | 0.00 | 0.00 | 61 | 1011.8 |
| 20260904152004 | 87 | 343 | 6.1 | 12.2 | 0.00 | 0.00 | 0.00 | 61 | 1011.7 |
| 20260904151503 | 86 | 0 | 3.5 | 10.4 | 0.00 | 0.00 | 0.00 | 63 | 1011.7 |
| 20260904151004 | 86 | 15 | 2.6 | 8.7 | 0.00 | 0.00 | 0.00 | 63 | 1011.9 |
| 20260904150503 | 86 | 312 | 6.1 | 12.2 | 0.00 | 0.00 | 0.00 | 62 | 1011.8 |
| 20260904150004 | 86 | 317 | 5.2 | 11.3 | 0.00 | 0.00 | 0.00 | 65 | 1011.8 |
| 20260904145504 | 86 | 7 | 1.7 | 8.7 | 0.00 | 0.00 | 0.00 | 65 | 1011.7 |
| 20260904145004 | 86 | 11 | 4.3 | 8.7 | 0.00 | 0.00 | 0.00 | 65 | 1011.8 |
| 20260904144503 | 86 | 336 | 4.3 | 10.4 | 0.00 | 0.00 | 0.00 | 67 | 1011.7 |
| 20260904144004 | 86 | 316 | 2.6 | 8.7 | 0.00 | 0.00 | 0.00 | 67 | 1011.7 |
| 20260904143503 | 86 | 321 | 4.3 | 10.4 | 0.00 | 0.00 | 0.00 | 68 | 1011.7 |
| 20260904143004 | 85 | 308 | 4.3 | 10.4 | 0.00 | 0.00 | 0.00 | 69 | 1011.7 |
| 20260904142503 | 85 | 305 | 2.6 | 4.3 | 0.00 | 0.00 | 0.00 | 71 | 1011.7 |
| 20260904142004 | 85 | 316 | 2.6 | 6.1 | 0.00 | 0.00 | 0.00 | 71 | 1011.6 |
| 20260904141503 | 85 | 350 | 1.7 | 10.4 | 0.00 | 0.00 | 0.00 | 72 | 1011.7 |
| 20260904141003 | 84 | 317 | 2.6 | 6.1 | 0.00 | 0.00 | 0.00 | 72 | 1011.7 |
| 20260904140503 | 84 | 316 | 5.2 | 11.3 | 0.00 | 0.00 | 0.00 | 71 | 1011.7 |
| 20260904140003 | 84 | 321 | 5.2 | 11.3 | 0.00 | 0.00 | 0.00 | 71 | 1011.6 |
| 20260904135503 | 84 | 325 | 5.2 | 10.4 | 0.00 | 0.00 | 0.00 | 72 | 1011.6 |
| 20260904135003 | 84 | 327 | 7.0 | 11.3 | 0.00 | 0.00 | 0.00 | 73 | 1011.5 |
| 20260904134503 | 84 | 321 | 5.2 | 12.2 | 0.00 | 0.00 | 0.00 | 73 | 1011.5 |
| 20260904134004 | 84 | 326 | 2.6 | 8.7 | 0.00 | 0.00 | 0.00 | 74 | 1011.4 |
| 20260904133504 | 83 | 334 | 4.3 | 7.8 | 0.00 | 0.00 | 0.00 | 76 | 1011.3 |
| 20260904133004 | 83 | 327 | 1.7 | 7.8 | 0.00 | 0.00 | 0.00 | 76 | 1011.2 |
| 20260904132503 | 82 | 260 | 3.5 | 15.6 | 0.00 | 0.00 | 0.00 | 77 | 1011.3 |
| 20260904132003 | 82 | 298 | 2.6 | 7.8 | 0.00 | 0.00 | 0.00 | 78 | 1011.3 |
| 20260904131503 | 82 | 315 | 2.6 | 7.8 | 0.00 | 0.00 | 0.00 | 79 | 1011.4 |
| 20260904131004 | 81 | 323 | 4.3 | 8.7 | 0.00 | 0.00 | 0.00 | 80 | 1011.4 |
| 20260904130503 | 81 | 290 | 2.6 | 10.4 | 0.00 | 0.00 | 0.00 | 82 | 1011.4 |
| 20260904130004 | 80 | 310 | 2.6 | 10.4 | 0.00 | 0.00 | 0.00 | 83 | 1011.3 |
| 20260904125504 | 80 | 323 | 4.3 | 12.2 | 0.00 | 0.00 | 0.00 | 84 | 1011.3 |
| 20260904125003 | 80 | 289 | 4.3 | 7.8 | 0.00 | 0.00 | 0.00 | 85 | 1011.2 |
| 20260904124503 | 79 | 317 | 2.6 | 7.0 | 0.00 | 0.00 | 0.00 | 86 | 1011.3 |
| 20260904124004 | 79 | 349 | 2.6 | 7.8 | 0.00 | 0.00 | 0.00 | 87 | 1011.3 |
| 20260904123504 | 78 | 14 | 1.7 | 7.0 | 0.00 | 0.00 | 0.00 | 88 | 1011.3 |
| 20260904123004 | 78 | 313 | 1.7 | 7.8 | 0.00 | 0.00 | 0.00 | 88 | 1011.3 |
| 20260904122503 | 78 | 229 | 2.6 | 7.0 | 0.00 | 0.00 | 0.00 | 89 | 1011.2 |
| 20260904122004 | 78 | 304 | 1.7 | 7.0 | 0.00 | 0.00 | 0.00 | 89 | 1011.1 |
| 20260904121504 | 77 | 300 | 0.9 | 5.2 | 0.00 | 0.00 | 0.00 | 89 | 1011.2 |
| 20260904121004 | 77 | 301 | 1.7 | 5.2 | 0.00 | 0.00 | 0.00 | 89 | 1011.1 |
| 20260904120503 | 77 | 272 | 0.9 | 5.2 | 0.00 | 0.00 | 0.00 | 89 | 1011.3 |
| 20260904120003 | 77 | 236 | 1.7 | 4.3 | 0.00 | 0.00 | 0.00 | 89 | 1011.4 |
| 20260904115504 | 77 | 312 | 1.7 | 5.2 | 0.00 | 0.00 | 0.00 | 89 | 1011.3 |
| 20260904115003 | 77 | 250 | 1.7 | 7.0 | 0.00 | 0.00 | 0.00 | 89 | 1011.2 |
| 20260904114504 | 76 | 266 | 1.7 | 7.0 | 0.00 | 0.00 | 0.00 | 89 | 1011.0 |
| 20260904114004 | 76 | 302 | 0.9 | 4.3 | 0.00 | 0.00 | 0.00 | 88 | 1011.0 |
| 20260904113503 | 76 | 187 | 0.9 | 2.6 | 0.00 | 0.00 | 0.00 | 88 | 1011.0 |
| 20260904113004 | 76 | 197 | 0.9 | 2.6 | 0.00 | 0.00 | 0.00 | 88 | 1010.9 |
| 20260904112503 | 76 | 232 | 0.0 | 2.6 | 0.00 | 0.00 | 0.00 | 88 | 1010.8 |
| 20260904112004 | 76 | 225 | 0.9 | 1.7 | 0.00 | 0.00 | 0.00 | 88 | 1010.7 |
| 20260904111503 | 76 | 225 | 0.0 | 0.9 | 0.00 | 0.00 | 0.00 | 88 | 1010.6 |
| 20260904111004 | 76 | 225 | 0.9 | 2.6 | 0.00 | 0.00 | 0.00 | 88 | 1010.6 |
| 20260904110504 | 76 | 244 | 0.0 | 1.7 | 0.00 | 0.00 | 0.00 | 87 | 1010.6 |
| 20260904110003 | 76 | 244 | 0.0 | 1.7 | 0.00 | 0.00 | 0.00 | 87 | 1010.6 |
| 20260904105504 | 76 | 244 | 0.0 | 0.0 | 0.00 | 0.00 | 0.00 | 87 | 1010.5 |
| 20260904105004 | 76 | 244 | 0.0 | 0.9 | 0.00 | 0.00 | 0.00 | 87 | 1010.5 |
| 20260904104504 | 76 | 246 | 0.9 | 2.6 | 0.00 | 0.00 | 0.00 | 87 | 1010.4 |
| 20260904104004 | 76 | 229 | 0.0 | 1.7 | 0.00 | 0.00 | 0.00 | 87 | 1010.3 |
| 20260904103504 | 76 | 229 | 0.9 | 2.6 | 0.00 | 0.00 | 0.00 | 87 | 1010.3 |
| 20260904103003 | 76 | 219 | 0.0 | 1.7 | 0.00 | 0.00 | 0.00 | 87 | 1010.4 |
| 20260904102504 | 76 | 213 | 0.9 | 2.6 | 0.00 | 0.01 | 0.00 | 87 | 1010.4 |
| 20260904102003 | 77 | 107 | 0.0 | 0.9 | 0.00 | 0.01 | 0.00 | 87 | 1010.4 |
| 20260904101504 | 77 | 107 | 0.0 | 2.6 | 0.00 | 0.01 | 0.00 | 88 | 1010.4 |
| 20260904101004 | 77 | 177 | 0.9 | 2.6 | 0.00 | 0.02 | 0.00 | 88 | 1010.4 |
| 20260904100503 | 77 | 207 | 0.9 | 2.6 | 0.00 | 0.03 | 0.00 | 88 | 1010.3 |
| 20260904100004 | 77 | 234 | 0.9 | 2.6 | 0.00 | 0.05 | 0.00 | 88 | 1010.2 |
| 20260904095503 | 77 | 249 | 1.7 | 6.1 | 0.00 | 0.06 | 0.00 | 88 | 1010.3 |
| 20260904095003 | 77 | 232 | 0.9 | 5.2 | 0.00 | 0.08 | 0.00 | 88 | 1010.3 |
| 20260904094503 | 77 | 225 | 1.7 | 5.2 | 0.00 | 0.10 | 0.00 | 88 | 1010.3 |
| 20260904094004 | 77 | 223 | 1.7 | 5.2 | 0.00 | 0.11 | 0.00 | 88 | 1010.3 |
| 20260904093503 | 77 | 236 | 1.7 | 2.6 | 0.00 | 0.12 | 0.00 | 88 | 1010.3 |
| 20260904093004 | 77 | 286 | 1.7 | 5.2 | 0.00 | 0.12 | 0.00 | 88 | 1010.4 |
| 20260904092504 | 77 | 125 | 0.9 | 2.6 | 0.00 | 0.12 | 0.00 | 87 | 1010.4 |
| 20260904092003 | 77 | 197 | 0.9 | 1.7 | 0.00 | 0.12 | 0.00 | 87 | 1010.4 |